sensor_id;sensor_type;location;lat;lon;timestamp;pressure;altitude;pressure_sealevel;temperature;humidity
41312;BME280;27061;41.648;24.568;2022-08-04T00:01:35;86279.88;;;19.02;56.65
41312;BME280;27061;41.648;24.568;2022-08-04T00:04:13;86280.06;;;18.96;57.06
41312;BME280;27061;41.648;24.568;2022-08-04T00:10:15;86257.06;;;18.73;56.84
41312;BME280;27061;41.648;24.568;2022-08-04T00:12:49;86285.91;;;18.90;57.01
41312;BME280;27061;41.648;24.568;2022-08-04T00:15:18;86283.22;;;18.86;56.72
41312;BME280;27061;41.648;24.568;2022-08-04T00:17:53;86271.69;;;18.76;57.27
41312;BME280;27061;41.648;24.568;2022-08-04T00:20:23;86242.72;;;18.62;56.67
41312;BME280;27061;41.648;24.568;2022-08-04T00:22:51;86274.97;;;18.82;56.91
41312;BME280;27061;41.648;24.568;2022-08-04T00:25:19;86255.22;;;18.65;56.61
41312;BME280;27061;41.648;24.568;2022-08-04T00:28:12;86249.16;;;18.57;56.78
41312;BME280;27061;41.648;24.568;2022-08-04T00:30:40;86280.72;;;18.78;56.65
41312;BME280;27061;41.648;24.568;2022-08-04T00:33:09;86243.97;;;18.45;56.97
41312;BME280;27061;41.648;24.568;2022-08-04T00:35:37;86272.66;;;18.68;56.70
41312;BME280;27061;41.648;24.568;2022-08-04T00:38:07;86266.34;;;18.47;56.98
41312;BME280;27061;41.648;24.568;2022-08-04T00:40:51;86275.53;;;18.66;56.85
41312;BME280;27061;41.648;24.568;2022-08-04T00:46:17;86282.09;;;18.58;57.09
41312;BME280;27061;41.648;24.568;2022-08-04T00:51:46;86280.16;;;18.53;57.09
41312;BME280;27061;41.648;24.568;2022-08-04T01:00:15;86281.19;;;18.43;57.24
41312;BME280;27061;41.648;24.568;2022-08-04T01:13:55;86282.28;;;18.32;57.27
41312;BME280;27061;41.648;24.568;2022-08-04T01:16:27;86281.03;;;18.26;57.41
41312;BME280;27061;41.648;24.568;2022-08-04T01:19:01;86289.22;;;18.12;57.77
41312;BME280;27061;41.648;24.568;2022-08-04T01:28:29;86278.50;;;18.18;57.47
41312;BME280;27061;41.648;24.568;2022-08-04T01:34:11;86271.78;;;18.09;58.04
41312;BME280;27061;41.648;24.568;2022-08-04T01:36:45;86272.53;;;18.08;57.98
41312;BME280;27061;41.648;24.568;2022-08-04T01:39:16;86258.88;;;17.98;58.02
41312;BME280;27061;41.648;24.568;2022-08-04T01:42:05;86276.16;;;18.04;57.93
41312;BME280;27061;41.648;24.568;2022-08-04T01:44:37;86250.16;;;17.85;57.85
41312;BME280;27061;41.648;24.568;2022-08-04T01:47:06;86271.91;;;18.05;58.08
41312;BME280;27061;41.648;24.568;2022-08-04T01:49:36;86230.31;;;17.70;58.02
41312;BME280;27061;41.648;24.568;2022-08-04T01:52:08;86236.47;;;17.75;58.16
41312;BME280;27061;41.648;24.568;2022-08-04T01:54:37;86265.22;;;17.96;58.24
41312;BME280;27061;41.648;24.568;2022-08-04T01:57:11;86260.91;;;17.99;57.97
41312;BME280;27061;41.648;24.568;2022-08-04T01:59:58;86265.22;;;17.96;57.98
41312;BME280;27061;41.648;24.568;2022-08-04T02:02:26;86266.53;;;17.99;57.87
41312;BME280;27061;41.648;24.568;2022-08-04T02:04:54;86226.91;;;17.68;58.12
41312;BME280;27061;41.648;24.568;2022-08-04T02:14:10;86246.00;;;17.84;57.91
41312;BME280;27061;41.648;24.568;2022-08-04T02:21:40;86240.09;;;17.71;57.94
41312;BME280;27061;41.648;24.568;2022-08-04T02:24:14;86271.03;;;17.90;58.13
41312;BME280;27061;41.648;24.568;2022-08-04T02:26:46;86237.97;;;17.72;58.12
41312;BME280;27061;41.648;24.568;2022-08-04T02:29:23;86268.22;;;17.90;58.15
41312;BME280;27061;41.648;24.568;2022-08-04T02:32:20;86253.47;;;17.69;58.79
41312;BME280;27061;41.648;24.568;2022-08-04T02:35:13;86271.88;;;17.84;58.86
41312;BME280;27061;41.648;24.568;2022-08-04T02:37:55;86235.59;;;17.58;58.57
41312;BME280;27061;41.648;24.568;2022-08-04T02:40:30;86258.63;;;17.83;58.53
41312;BME280;27061;41.648;24.568;2022-08-04T02:43:01;86253.47;;;17.69;58.88
41312;BME280;27061;41.648;24.568;2022-08-04T02:45:30;86226.38;;;17.61;58.77
41312;BME280;27061;41.648;24.568;2022-08-04T02:48:02;86248.06;;;17.63;58.60
41312;BME280;27061;41.648;24.568;2022-08-04T02:50:54;86263.84;;;17.72;59.26
41312;BME280;27061;41.648;24.568;2022-08-04T02:53:25;86263.16;;;17.72;59.34
41312;BME280;27061;41.648;24.568;2022-08-04T02:55:57;86248.75;;;17.63;59.52
41312;BME280;27061;41.648;24.568;2022-08-04T02:58:30;86259.69;;;17.71;59.45
41312;BME280;27061;41.648;24.568;2022-08-04T03:01:25;86264.59;;;17.71;59.54
41312;BME280;27061;41.648;24.568;2022-08-04T03:15:51;86276.06;;;17.63;59.96
41312;BME280;27061;41.648;24.568;2022-08-04T03:42:21;86283.19;;;17.58;59.74
41312;BME280;27061;41.648;24.568;2022-08-04T03:51:01;86272.69;;;17.58;60.49
41312;BME280;27061;41.648;24.568;2022-08-04T04:14:45;86280.50;;;17.53;62.32
41312;BME280;27061;41.648;24.568;2022-08-04T04:25:27;86283.25;;;17.55;63.05
41312;BME280;27061;41.648;24.568;2022-08-04T04:37:05;86281.53;;;17.67;65.31
41312;BME280;27061;41.648;24.568;2022-08-04T04:39:51;86269.19;;;17.58;66.28
41312;BME280;27061;41.648;24.568;2022-08-04T04:48:17;86285.25;;;17.82;65.65
41312;BME280;27061;41.648;24.568;2022-08-04T04:50:58;86278.28;;;17.81;63.06
41312;BME280;27061;41.648;24.568;2022-08-04T04:53:32;86282.06;;;17.94;61.95
41312;BME280;27061;41.648;24.568;2022-08-04T04:56:39;86275.72;;;17.96;63.85
41312;BME280;27061;41.648;24.568;2022-08-04T04:59:10;86267.94;;;17.98;63.54
41312;BME280;27061;41.648;24.568;2022-08-04T05:02:20;86273.56;;;17.98;62.95
41312;BME280;27061;41.648;24.568;2022-08-04T05:08:17;86251.41;;;17.90;61.58
41312;BME280;27061;41.648;24.568;2022-08-04T05:13:51;86271.66;;;18.13;61.95
41312;BME280;27061;41.648;24.568;2022-08-04T05:16:46;86289.38;;;18.28;61.08
41312;BME280;27061;41.648;24.568;2022-08-04T05:19:32;86276.22;;;18.23;61.07
41312;BME280;27061;41.648;24.568;2022-08-04T05:22:21;86283.31;;;18.43;59.75
41312;BME280;27061;41.648;24.568;2022-08-04T05:31:52;86260.88;;;18.84;59.68
41312;BME280;27061;41.648;24.568;2022-08-04T05:34:23;86281.69;;;19.10;59.14
41312;BME280;27061;41.648;24.568;2022-08-04T05:36:57;86280.81;;;19.16;59.92
41312;BME280;27061;41.648;24.568;2022-08-04T05:39:55;86284.66;;;19.06;59.21
41312;BME280;27061;41.648;24.568;2022-08-04T05:42:25;86272.50;;;18.93;59.21
41312;BME280;27061;41.648;24.568;2022-08-04T05:44:53;86299.22;;;19.11;58.05
41312;BME280;27061;41.648;24.568;2022-08-04T05:47:23;86299.09;;;19.15;57.41
41312;BME280;27061;41.648;24.568;2022-08-04T05:49:52;86283.75;;;19.12;56.41
41312;BME280;27061;41.648;24.568;2022-08-04T05:52:30;86267.66;;;19.10;56.65
41312;BME280;27061;41.648;24.568;2022-08-04T05:54:59;86287.63;;;19.21;57.98
41312;BME280;27061;41.648;24.568;2022-08-04T05:57:28;86288.19;;;19.25;58.17
41312;BME280;27061;41.648;24.568;2022-08-04T05:59:58;86285.44;;;19.23;58.45
41312;BME280;27061;41.648;24.568;2022-08-04T06:02:27;86284.06;;;19.22;58.51
41312;BME280;27061;41.648;24.568;2022-08-04T06:04:58;86302.22;;;19.44;58.19
41312;BME280;27061;41.648;24.568;2022-08-04T06:07:27;86304.53;;;19.58;57.14
41312;BME280;27061;41.648;24.568;2022-08-04T06:09:55;86302.72;;;19.69;57.10
41312;BME280;27061;41.648;24.568;2022-08-04T06:12:25;86300.97;;;19.79;56.43
41312;BME280;27061;41.648;24.568;2022-08-04T06:14:58;86300.22;;;19.80;55.18
41312;BME280;27061;41.648;24.568;2022-08-04T06:17:37;86304.09;;;19.89;54.83
41312;BME280;27061;41.648;24.568;2022-08-04T06:20:29;86304.88;;;20.04;53.25
41312;BME280;27061;41.648;24.568;2022-08-04T06:23:02;86306.78;;;20.10;51.02
41312;BME280;27061;41.648;24.568;2022-08-04T06:25:32;86271.13;;;19.88;52.41
41312;BME280;27061;41.648;24.568;2022-08-04T06:28:04;86303.97;;;20.10;53.01
41312;BME280;27061;41.648;24.568;2022-08-04T06:30:33;86291.44;;;20.07;54.78
41312;BME280;27061;41.648;24.568;2022-08-04T06:33:31;86311.00;;;20.28;54.36
41312;BME280;27061;41.648;24.568;2022-08-04T06:36:21;86299.00;;;20.29;54.74
41312;BME280;27061;41.648;24.568;2022-08-04T06:39:14;86299.63;;;20.32;53.40
41312;BME280;27061;41.648;24.568;2022-08-04T06:41:44;86315.84;;;20.48;54.18
41312;BME280;27061;41.648;24.568;2022-08-04T06:44:57;86294.28;;;20.42;52.73
41312;BME280;27061;41.648;24.568;2022-08-04T06:47:26;86309.59;;;20.64;52.61
41312;BME280;27061;41.648;24.568;2022-08-04T06:49:55;86320.25;;;20.78;53.58
41312;BME280;27061;41.648;24.568;2022-08-04T06:52:44;86302.78;;;20.76;52.33
41312;BME280;27061;41.648;24.568;2022-08-04T06:55:13;86308.06;;;20.84;50.76
41312;BME280;27061;41.648;24.568;2022-08-04T06:57:43;86313.19;;;20.96;51.47
41312;BME280;27061;41.648;24.568;2022-08-04T07:00:13;86325.38;;;21.07;51.52
41312;BME280;27061;41.648;24.568;2022-08-04T07:02:48;86318.03;;;21.14;50.47
41312;BME280;27061;41.648;24.568;2022-08-04T07:05:18;86320.78;;;21.16;50.13
41312;BME280;27061;41.648;24.568;2022-08-04T07:07:46;86315.59;;;21.23;50.30
41312;BME280;27061;41.648;24.568;2022-08-04T07:10:28;86312.59;;;21.27;50.24
41312;BME280;27061;41.648;24.568;2022-08-04T07:13:01;86317.88;;;21.35;50.22
41312;BME280;27061;41.648;24.568;2022-08-04T07:15:30;86292.38;;;21.06;48.11
41312;BME280;27061;41.648;24.568;2022-08-04T07:17:58;86311.56;;;21.35;48.74
41312;BME280;27061;41.648;24.568;2022-08-04T07:20:29;86309.84;;;21.42;47.76
41312;BME280;27061;41.648;24.568;2022-08-04T07:23:06;86286.47;;;21.12;48.44
41312;BME280;27061;41.648;24.568;2022-08-04T07:25:34;86312.78;;;21.40;49.67
41312;BME280;27061;41.648;24.568;2022-08-04T07:29:04;86310.97;;;21.49;49.25
41312;BME280;27061;41.648;24.568;2022-08-04T07:31:32;86280.75;;;21.31;49.80
41312;BME280;27061;41.648;24.568;2022-08-04T07:34:28;86306.94;;;21.44;47.46
41312;BME280;27061;41.648;24.568;2022-08-04T07:36:59;86320.34;;;21.60;48.86
41312;BME280;27061;41.648;24.568;2022-08-04T07:39:29;86312.47;;;21.63;47.55
41312;BME280;27061;41.648;24.568;2022-08-04T07:42:17;86290.38;;;21.52;47.56
41312;BME280;27061;41.648;24.568;2022-08-04T07:44:46;86303.78;;;21.52;47.69
41312;BME280;27061;41.648;24.568;2022-08-04T07:47:13;86310.56;;;21.74;49.07
41312;BME280;27061;41.648;24.568;2022-08-04T07:49:52;86313.38;;;21.74;45.39
41312;BME280;27061;41.648;24.568;2022-08-04T07:52:25;86279.09;;;21.52;47.02
41312;BME280;27061;41.648;24.568;2022-08-04T07:54:55;86319.44;;;21.80;46.82
41312;BME280;27061;41.648;24.568;2022-08-04T07:57:23;86290.19;;;21.57;45.91
41312;BME280;27061;41.648;24.568;2022-08-04T08:00:32;86312.22;;;21.83;46.90
41312;BME280;27061;41.648;24.568;2022-08-04T08:03:00;86286.63;;;21.58;47.41
41312;BME280;27061;41.648;24.568;2022-08-04T08:05:55;86312.91;;;21.84;47.09
41312;BME280;27061;41.648;24.568;2022-08-04T08:08:42;86279.25;;;21.65;47.29
41312;BME280;27061;41.648;24.568;2022-08-04T08:11:34;86290.97;;;21.86;46.30
41312;BME280;27061;41.648;24.568;2022-08-04T08:14:22;86275.50;;;21.71;45.62
41312;BME280;27061;41.648;24.568;2022-08-04T08:16:51;86266.47;;;21.51;45.04
41312;BME280;27061;41.648;24.568;2022-08-04T08:19:19;86314.03;;;21.91;44.87
41312;BME280;27061;41.648;24.568;2022-08-04T08:21:48;86304.78;;;21.92;46.26
41312;BME280;27061;41.648;24.568;2022-08-04T08:24:26;86280.78;;;21.62;46.11
41312;BME280;27061;41.648;24.568;2022-08-04T08:27:17;86325.53;;;22.02;45.21
41312;BME280;27061;41.648;24.568;2022-08-04T08:29:45;86286.75;;;21.71;45.14
41312;BME280;27061;41.648;24.568;2022-08-04T08:32:14;86322.72;;;22.02;44.76
41312;BME280;27061;41.648;24.568;2022-08-04T08:34:42;86323.25;;;21.89;43.16
41312;BME280;27061;41.648;24.568;2022-08-04T08:51:19;86331.75;;;22.04;44.80
41312;BME280;27061;41.648;24.568;2022-08-04T08:53:58;86329.03;;;22.02;44.08
41312;BME280;27061;41.648;24.568;2022-08-04T09:07:01;86339.69;;;22.31;45.22
41312;BME280;27061;41.648;24.568;2022-08-04T09:09:21;86334.19;;;22.44;42.27
41312;BME280;27061;41.648;24.568;2022-08-04T09:12:39;86332.72;;;22.59;42.64
41312;BME280;27061;41.648;24.568;2022-08-04T09:15:45;86329.13;;;22.61;41.32
41312;BME280;27061;41.648;24.568;2022-08-04T09:18:31;86274.84;;;22.31;44.19
41312;BME280;27061;41.648;24.568;2022-08-04T09:28:24;86333.25;;;23.08;43.33
41312;BME280;27061;41.648;24.568;2022-08-04T09:31:21;86323.00;;;23.15;41.82
41312;BME280;27061;41.648;24.568;2022-08-04T09:34:06;86314.16;;;23.09;42.97
41312;BME280;27061;41.648;24.568;2022-08-04T09:37:08;86338.84;;;23.23;42.52
41312;BME280;27061;41.648;24.568;2022-08-04T09:43:50;86339.00;;;23.48;40.53
41312;BME280;27061;41.648;24.568;2022-08-04T09:46:52;86339.31;;;23.57;42.29
41312;BME280;27061;41.648;24.568;2022-08-04T09:49:34;86310.28;;;23.44;41.72
41312;BME280;27061;41.648;24.568;2022-08-04T09:52:10;86334.19;;;23.74;41.15
41312;BME280;27061;41.648;24.568;2022-08-04T10:00:14;86296.69;;;23.88;41.14
41312;BME280;27061;41.648;24.568;2022-08-04T10:02:47;86315.31;;;24.11;40.00
41312;BME280;27061;41.648;24.568;2022-08-04T10:06:07;86323.09;;;24.25;40.40
41312;BME280;27061;41.648;24.568;2022-08-04T10:08:53;86333.06;;;24.49;36.13
41312;BME280;27061;41.648;24.568;2022-08-04T10:18:07;86306.28;;;24.73;37.31
41312;BME280;27061;41.648;24.568;2022-08-04T10:20:54;86326.25;;;24.97;38.06
41312;BME280;27061;41.648;24.568;2022-08-04T10:27:29;86317.28;;;25.05;35.15
41312;BME280;27061;41.648;24.568;2022-08-04T10:30:07;86322.84;;;24.94;30.22
41312;BME280;27061;41.648;24.568;2022-08-04T10:33:02;86313.19;;;25.02;34.29
41312;BME280;27061;41.648;24.568;2022-08-04T10:36:02;86288.59;;;24.73;33.45
41312;BME280;27061;41.648;24.568;2022-08-04T10:38:48;86323.97;;;25.12;35.79
41312;BME280;27061;41.648;24.568;2022-08-04T10:44:19;86322.38;;;25.15;35.62
41312;BME280;27061;41.648;24.568;2022-08-04T10:46:54;86307.53;;;25.27;34.08
41312;BME280;27061;41.648;24.568;2022-08-04T10:49:33;86322.47;;;25.26;34.13
41312;BME280;27061;41.648;24.568;2022-08-04T10:52:13;86301.66;;;25.06;32.51
41312;BME280;27061;41.648;24.568;2022-08-04T10:55:19;86318.41;;;25.23;32.27
41312;BME280;27061;41.648;24.568;2022-08-04T10:58:18;86313.88;;;25.15;32.82
41312;BME280;27061;41.648;24.568;2022-08-04T11:00:47;86302.56;;;25.15;34.61
41312;BME280;27061;41.648;24.568;2022-08-04T11:03:33;86319.06;;;25.23;34.40
41312;BME280;27061;41.648;24.568;2022-08-04T11:06:51;86320.44;;;25.24;34.64
41312;BME280;27061;41.648;24.568;2022-08-04T11:09:45;86316.59;;;25.30;33.65
41312;BME280;27061;41.648;24.568;2022-08-04T11:12:16;86318.19;;;25.27;33.22
41312;BME280;27061;41.648;24.568;2022-08-04T11:15:09;86323.72;;;25.29;33.09
41312;BME280;27061;41.648;24.568;2022-08-04T11:17:57;86289.44;;;24.97;33.90
41312;BME280;27061;41.648;24.568;2022-08-04T11:20:37;86294.63;;;25.05;33.89
41312;BME280;27061;41.648;24.568;2022-08-04T11:23:12;86312.75;;;25.10;34.29
41312;BME280;27061;41.648;24.568;2022-08-04T11:26:06;86315.47;;;25.12;34.03
41312;BME280;27061;41.648;24.568;2022-08-04T11:28:41;86319.91;;;25.09;34.89
41312;BME280;27061;41.648;24.568;2022-08-04T11:31:30;86320.00;;;25.07;34.93
41312;BME280;27061;41.648;24.568;2022-08-04T11:36:51;86304.13;;;25.12;36.65
41312;BME280;27061;41.648;24.568;2022-08-04T11:39:40;86294.84;;;25.01;35.44
41312;BME280;27061;41.648;24.568;2022-08-04T11:42:25;86310.34;;;25.27;36.74
41312;BME280;27061;41.648;24.568;2022-08-04T11:44:59;86271.16;;;25.19;36.25
41312;BME280;27061;41.648;24.568;2022-08-04T11:47:32;86286.41;;;25.37;35.35
41312;BME280;27061;41.648;24.568;2022-08-04T11:50:04;86303.41;;;25.49;34.95
41312;BME280;27061;41.648;24.568;2022-08-04T11:52:41;86299.78;;;25.64;35.64
41312;BME280;27061;41.648;24.568;2022-08-04T11:55:16;86289.47;;;25.45;31.65
41312;BME280;27061;41.648;24.568;2022-08-04T11:58:12;86287.50;;;25.54;34.68
41312;BME280;27061;41.648;24.568;2022-08-04T12:00:49;86280.97;;;25.33;34.54
41312;BME280;27061;41.648;24.568;2022-08-04T12:06:24;86295.91;;;25.44;33.20
41312;BME280;27061;41.648;24.568;2022-08-04T12:12:42;86274.47;;;25.60;35.29
41312;BME280;27061;41.648;24.568;2022-08-04T12:15:36;86279.44;;;25.72;34.09
41312;BME280;27061;41.648;24.568;2022-08-04T12:20:56;86290.41;;;25.78;33.84
41312;BME280;27061;41.648;24.568;2022-08-04T12:23:31;86269.03;;;25.56;33.05
41312;BME280;27061;41.648;24.568;2022-08-04T12:26:08;86278.44;;;25.65;33.68
41312;BME280;27061;41.648;24.568;2022-08-04T12:28:39;86253.50;;;25.54;34.02
41312;BME280;27061;41.648;24.568;2022-08-04T12:31:40;86286.81;;;25.67;33.00
41312;BME280;27061;41.648;24.568;2022-08-04T12:34:18;86284.66;;;25.67;33.23
41312;BME280;27061;41.648;24.568;2022-08-04T12:37:07;86266.66;;;25.47;33.35
41312;BME280;27061;41.648;24.568;2022-08-04T12:39:41;86288.44;;;25.51;34.43
41312;BME280;27061;41.648;24.568;2022-08-04T12:42:38;86288.66;;;25.47;33.55
41312;BME280;27061;41.648;24.568;2022-08-04T12:45:26;86265.81;;;25.26;32.74
41312;BME280;27061;41.648;24.568;2022-08-04T12:47:56;86283.38;;;25.28;32.44
41312;BME280;27061;41.648;24.568;2022-08-04T12:50:26;86252.47;;;25.11;33.30
41312;BME280;27061;41.648;24.568;2022-08-04T12:52:56;86276.03;;;25.21;33.87
41312;BME280;27061;41.648;24.568;2022-08-04T12:59:12;86263.88;;;25.22;35.43
41312;BME280;27061;41.648;24.568;2022-08-04T13:01:46;86282.13;;;25.38;35.18
41312;BME280;27061;41.648;24.568;2022-08-04T13:04:34;86256.72;;;25.36;34.60
41312;BME280;27061;41.648;24.568;2022-08-04T13:07:42;86278.47;;;25.52;34.58
41312;BME280;27061;41.648;24.568;2022-08-04T13:10:14;86226.81;;;25.26;33.22
41312;BME280;27061;41.648;24.568;2022-08-04T13:13:14;86270.06;;;25.63;34.94
41312;BME280;27061;41.648;24.568;2022-08-04T13:16:02;86276.72;;;25.70;34.86
41312;BME280;27061;41.648;24.568;2022-08-04T13:18:45;86266.84;;;25.69;33.50
41312;BME280;27061;41.648;24.568;2022-08-04T13:21:21;86264.41;;;25.86;34.45
41312;BME280;27061;41.648;24.568;2022-08-04T13:24:14;86276.75;;;25.93;34.02
41312;BME280;27061;41.648;24.568;2022-08-04T13:27:22;86266.28;;;26.02;33.62
41312;BME280;27061;41.648;24.568;2022-08-04T13:29:54;86228.88;;;25.87;34.16
41312;BME280;27061;41.648;24.568;2022-08-04T13:32:27;86235.88;;;26.01;33.70
41312;BME280;27061;41.648;24.568;2022-08-04T13:34:56;86262.94;;;26.34;33.42
41312;BME280;27061;41.648;24.568;2022-08-04T13:37:32;86258.06;;;26.32;33.13
41312;BME280;27061;41.648;24.568;2022-08-04T13:40:08;86238.66;;;26.37;33.08
41312;BME280;27061;41.648;24.568;2022-08-04T13:42:38;86258.72;;;26.56;33.80
41312;BME280;27061;41.648;24.568;2022-08-04T13:45:08;86260.00;;;26.70;33.73
41312;BME280;27061;41.648;24.568;2022-08-04T13:47:38;86231.81;;;26.55;32.81
41312;BME280;27061;41.648;24.568;2022-08-04T13:50:11;86255.19;;;26.89;33.25
41312;BME280;27061;41.648;24.568;2022-08-04T13:52:41;86256.28;;;26.94;33.04
41312;BME280;27061;41.648;24.568;2022-08-04T13:55:35;86259.00;;;26.96;31.24
41312;BME280;27061;41.648;24.568;2022-08-04T13:58:33;86247.03;;;26.83;32.63
41312;BME280;27061;41.648;24.568;2022-08-04T14:01:19;86256.91;;;26.84;32.43
41312;BME280;27061;41.648;24.568;2022-08-04T14:04:08;86252.47;;;26.87;31.95
41312;BME280;27061;41.648;24.568;2022-08-04T14:07:12;86264.44;;;27.01;31.95
41312;BME280;27061;41.648;24.568;2022-08-04T14:09:47;86260.25;;;27.00;31.79
41312;BME280;27061;41.648;24.568;2022-08-04T14:12:30;86276.69;;;26.86;30.50
41312;BME280;27061;41.648;24.568;2022-08-04T14:18:26;86264.09;;;26.83;32.03
41312;BME280;27061;41.648;24.568;2022-08-04T14:21:10;86273.91;;;26.97;32.56
41312;BME280;27061;41.648;24.568;2022-08-04T14:24:04;86263.88;;;26.98;32.67
41312;BME280;27061;41.648;24.568;2022-08-04T14:26:35;86260.41;;;27.08;32.19
41312;BME280;27061;41.648;24.568;2022-08-04T14:29:14;86249.25;;;26.93;31.59
41312;BME280;27061;41.648;24.568;2022-08-04T14:32:01;86244.56;;;27.01;29.45
41312;BME280;27061;41.648;24.568;2022-08-04T14:34:38;86199.94;;;26.65;31.50
41312;BME280;27061;41.648;24.568;2022-08-04T14:37:10;86268.38;;;27.06;31.08
41312;BME280;27061;41.648;24.568;2022-08-04T14:40:28;86247.03;;;26.83;32.45
41312;BME280;27061;41.648;24.568;2022-08-04T14:42:58;86242.84;;;26.82;32.02
41312;BME280;27061;41.648;24.568;2022-08-04T14:45:34;86264.81;;;26.94;31.53
41312;BME280;27061;41.648;24.568;2022-08-04T14:48:06;86251.25;;;26.84;31.21
41312;BME280;27061;41.648;24.568;2022-08-04T14:50:41;86262.31;;;26.78;31.97
41312;BME280;27061;41.648;24.568;2022-08-04T14:53:17;86265.13;;;26.67;32.36
41312;BME280;27061;41.648;24.568;2022-08-04T14:56:10;86263.03;;;26.55;32.16
41312;BME280;27061;41.648;24.568;2022-08-04T14:58:59;86231.84;;;26.32;31.72
41312;BME280;27061;41.648;24.568;2022-08-04T15:01:28;86241.59;;;26.35;32.16
41312;BME280;27061;41.648;24.568;2022-08-04T15:03:57;86270.44;;;26.50;32.32
41312;BME280;27061;41.648;24.568;2022-08-04T15:06:28;86234.06;;;26.18;33.06
41312;BME280;27061;41.648;24.568;2022-08-04T15:08:58;86234.81;;;26.06;33.00
41312;BME280;27061;41.648;24.568;2022-08-04T15:11:27;86226.44;;;26.04;34.04
41312;BME280;27061;41.648;24.568;2022-08-04T15:13:56;86247.03;;;25.92;33.43
41312;BME280;27061;41.648;24.568;2022-08-04T15:16:27;86223.91;;;25.87;32.30
41312;BME280;27061;41.648;24.568;2022-08-04T15:18:55;86223.47;;;25.83;34.09
41312;BME280;27061;41.648;24.568;2022-08-04T15:21:51;86252.88;;;26.01;33.87
41312;BME280;27061;41.648;24.568;2022-08-04T15:24:19;86235.28;;;25.75;33.44
41312;BME280;27061;41.648;24.568;2022-08-04T15:26:49;86221.88;;;25.63;33.60
41312;BME280;27061;41.648;24.568;2022-08-04T15:29:37;86253.88;;;25.84;33.42
41312;BME280;27061;41.648;24.568;2022-08-04T15:32:31;86255.41;;;25.71;33.42
41312;BME280;27061;41.648;24.568;2022-08-04T15:35:11;86247.13;;;25.67;34.45
41312;BME280;27061;41.648;24.568;2022-08-04T15:38:01;86252.22;;;25.64;33.28
41312;BME280;27061;41.648;24.568;2022-08-04T15:40:58;86251.69;;;25.62;34.37
41312;BME280;27061;41.648;24.568;2022-08-04T15:43:58;86264.13;;;25.67;35.76
41312;BME280;27061;41.648;24.568;2022-08-04T15:49:24;86229.53;;;25.28;35.48
41312;BME280;27061;41.648;24.568;2022-08-04T15:52:07;86234.22;;;25.21;34.93
41312;BME280;27061;41.648;24.568;2022-08-04T15:54:50;86223.03;;;25.06;35.89
41312;BME280;27061;41.648;24.568;2022-08-04T15:58:47;86257.44;;;25.24;37.74
41312;BME280;27061;41.648;24.568;2022-08-04T16:01:17;86232.31;;;25.05;37.71
41312;BME280;27061;41.648;24.568;2022-08-04T16:03:49;86257.22;;;25.15;37.78
41312;BME280;27061;41.648;24.568;2022-08-04T16:12:52;86253.72;;;25.02;36.69
41312;BME280;27061;41.648;24.568;2022-08-04T16:15:41;86257.59;;;24.96;36.17
41312;BME280;27061;41.648;24.568;2022-08-04T16:18:10;86250.22;;;24.89;36.94
41312;BME280;27061;41.648;24.568;2022-08-04T16:20:58;86249.66;;;24.73;37.73
41312;BME280;27061;41.648;24.568;2022-08-04T16:26:52;86265.38;;;24.70;38.62
41312;BME280;27061;41.648;24.568;2022-08-04T16:29:43;86239.81;;;24.47;38.69
41312;BME280;27061;41.648;24.568;2022-08-04T16:32:16;86262.81;;;24.66;38.92
41312;BME280;27061;41.648;24.568;2022-08-04T16:34:51;86230.06;;;24.44;38.55
41312;BME280;27061;41.648;24.568;2022-08-04T16:40:27;86262.44;;;24.60;39.13
41312;BME280;27061;41.648;24.568;2022-08-04T16:43:13;86256.34;;;24.55;39.03
41312;BME280;27061;41.648;24.568;2022-08-04T16:48:10;86267.09;;;24.53;38.31
41312;BME280;27061;41.648;24.568;2022-08-04T16:53:18;86267.19;;;24.38;38.91
41312;BME280;27061;41.648;24.568;2022-08-04T16:56:32;86269.69;;;24.31;39.19
41312;BME280;27061;41.648;24.568;2022-08-04T16:59:10;86248.13;;;24.11;39.42
41312;BME280;27061;41.648;24.568;2022-08-04T17:01:48;86270.31;;;24.19;39.04
41312;BME280;27061;41.648;24.568;2022-08-04T17:04:41;86267.31;;;23.96;39.59
41312;BME280;27061;41.648;24.568;2022-08-04T17:07:08;86250.09;;;23.87;39.51
41312;BME280;27061;41.648;24.568;2022-08-04T17:09:48;86271.03;;;23.92;39.93
41312;BME280;27061;41.648;24.568;2022-08-04T17:12:15;86264.03;;;23.91;39.45
41312;BME280;27061;41.648;24.568;2022-08-04T17:14:46;86267.41;;;23.81;40.05
41312;BME280;27061;41.648;24.568;2022-08-04T17:17:14;86263.84;;;23.68;39.77
41312;BME280;27061;41.648;24.568;2022-08-04T17:19:51;86279.78;;;23.73;40.07
41312;BME280;27061;41.648;24.568;2022-08-04T17:22:20;86252.72;;;23.51;40.29
41312;BME280;27061;41.648;24.568;2022-08-04T17:24:47;86283.72;;;23.66;39.96
41312;BME280;27061;41.648;24.568;2022-08-04T17:27:17;86282.78;;;23.57;40.04
41312;BME280;27061;41.648;24.568;2022-08-04T17:30:24;86286.63;;;23.36;40.29
41312;BME280;27061;41.648;24.568;2022-08-04T17:33:17;86289.25;;;23.41;40.52
41312;BME280;27061;41.648;24.568;2022-08-04T17:35:47;86253.41;;;22.95;40.49
41312;BME280;27061;41.648;24.568;2022-08-04T17:38:15;86290.66;;;23.12;40.79
41312;BME280;27061;41.648;24.568;2022-08-04T17:40:50;86263.53;;;22.90;40.77
41312;BME280;27061;41.648;24.568;2022-08-04T17:43:36;86292.16;;;22.96;41.23
41312;BME280;27061;41.648;24.568;2022-08-04T17:46:38;86295.75;;;22.95;41.22
41312;BME280;27061;41.648;24.568;2022-08-04T17:51:46;86294.41;;;22.64;41.78
41312;BME280;27061;41.648;24.568;2022-08-04T17:54:36;86286.22;;;22.58;41.93
41312;BME280;27061;41.648;24.568;2022-08-04T17:57:35;86286.91;;;22.44;41.76
41312;BME280;27061;41.648;24.568;2022-08-04T18:00:03;86267.06;;;22.32;41.76